METAR Formatted Surface Weather Observation
Issued by NWS

Home | Current Version | Previous Version | Text Only | Print | Product List | Glossary On
Versions: 1 2 3 4 5 6 7 8 9 10 11 12 13 14
000
SAUS41 KGYX 241102 COR
MTRNKT
METAR KNKT 241054Z 36003KT 10SM CLR 04/02 A3055 RMK AO2 SLP342
T00440017



USA.gov is the U.S. government's official web portal to all federal, state and local government web resources and services.